Aeroporto :
LOGIN :

Iscrizione | Disclaimer

   EN    FR    IT 

 










Sommario :    VFR   VFR Marginale   IFR   IFR Intensivo   IFR Molto Intensivo
Visibilità : 
Base nubi : 
>= 8 km
>= 3000ft
5 / 8 km
1000 / 3000 ft
1500m / 5 km
500 / 1000 ft
800 / 1500m
200 / 500 ft
< 800m
< 200 ft
Simboli :   Temporali  Nebbia  Neve Forte  Precipitazioni Forti  Vento > 20 kt
SIGMETs :   Varie  Temporali  Ghiacco  Turbolenza  Onda orograficha  Ceneri Vulcaniche






- Altitudine del aeroporto : 82 ft
- Codice IATA : ALG


DAAG - Alger Houari Boumedienne

ULTIMO METAR :
  • 280030Z 26003KT 210V300 CAVOK 09/07 Q1022

METARs OBSOLETI :
  • 280000Z 26003KT 220V300 CAVOK 10/08 Q1022
  • 272330Z 23003KT CAVOK 10/08 Q1022
  • 272300Z 21003KT CAVOK 11/09 Q1023
  • 272230Z 23003KT 210V270 CAVOK 11/09 Q1022
  • 272200Z 19004KT CAVOK 12/09 Q1023

TAF TAF DAAG
Valido dal 27 a 18 ore il 28 a 18 ore UTC


271700Z 2718/2818 31010KT CAVOK
BECMG 2719/2722 VRB02KT
PROB30
TEMPO 2723/2804 5000 BR
TEMPO 2803/2809 19010KT
BECMG 2812/2815 01010KT



MetMap, La meteo Aeronautica in un colpo d'occhio ! - Copyright ORBIFLY Dicembre 2007 - Disclaimer

ORBIFLY MET'MAP TEAM :

Programmazione e sviluppo : Alexandra Zaïnal
Concezione : Baudouin d'Aumeries
Aiuto per la programmazione : Marc-Olivier Méhu
Supporto tecnico e logistico : Manuel Goepfert
Aiuto per la traduzione : Arnaldo La Scala

Contatto : metmap@orbifly.com




FONTI E CREDITI :

   NOAA